createdAt,value
2018-03-16T00:00:05.585Z,12.57
2018-03-16T00:02:32.330Z,11.30
2018-03-16T00:04:59.520Z,11.75
2018-03-16T00:07:26.899Z,12.37
2018-03-16T00:09:53.862Z,11.18
2018-03-16T00:12:21.107Z,10.50
2018-03-16T00:14:48.073Z,14.20
2018-03-16T00:17:15.656Z,12.02
2018-03-16T00:19:43.196Z,12.13
2018-03-16T00:22:09.422Z,12.07
2018-03-16T00:24:36.341Z,11.35
2018-03-16T00:27:03.157Z,12.55
2018-03-16T00:29:30.641Z,14.05
2018-03-16T00:31:56.855Z,14.40
2018-03-16T00:34:24.226Z,14.05
2018-03-16T00:36:50.936Z,13.77
2018-03-16T00:39:17.127Z,14.02
2018-03-16T00:41:44.732Z,12.32
2018-03-16T00:44:11.778Z,13.65
2018-03-16T00:46:38.003Z,11.30
2018-03-16T00:49:05.108Z,11.75
2018-03-16T00:51:31.997Z,10.60
2018-03-16T00:53:58.395Z,11.88
2018-03-16T00:56:25.120Z,11.70
2018-03-16T00:58:51.341Z,11.63
2018-03-16T01:01:17.934Z,11.35
2018-03-16T01:03:44.974Z,12.90
2018-03-16T01:06:11.186Z,11.07
2018-03-16T01:08:38.722Z,13.90
2018-03-16T01:11:05.715Z,11.50
2018-03-16T01:13:32.883Z,13.32
2018-03-16T01:15:59.055Z,11.60
2018-03-16T01:18:25.899Z,11.15
2018-03-16T01:20:52.685Z,12.90
2018-03-16T01:23:19.023Z,13.10
2018-03-16T01:25:45.483Z,12.05
2018-03-16T01:28:12.753Z,12.50
2018-03-16T01:30:38.950Z,13.50
2018-03-16T01:33:05.814Z,12.13
2018-03-16T01:35:32.091Z,12.63
2018-03-16T01:37:58.832Z,12.37
2018-03-16T01:40:25.869Z,12.63
2018-03-16T01:42:52.159Z,12.77
2018-03-16T01:45:18.919Z,14.30
2018-03-16T01:47:45.384Z,13.00
2018-03-16T01:50:11.644Z,12.70
2018-03-16T01:52:37.871Z,14.90
2018-03-16T01:55:04.229Z,14.18
2018-03-16T01:57:31.136Z,13.10
2018-03-16T01:59:59.115Z,13.75
2018-03-16T02:02:25.877Z,13.88
2018-03-16T02:04:52.076Z,13.30
2018-03-16T02:07:18.833Z,12.25
2018-03-16T02:09:46.097Z,13.18
2018-03-16T02:12:12.815Z,13.05
2018-03-16T02:14:39.008Z,11.93
2018-03-16T02:17:05.290Z,12.80
2018-03-16T02:19:31.516Z,13.57
2018-03-16T02:21:58.768Z,12.48
2018-03-16T02:24:26.024Z,13.35
2018-03-16T02:26:52.334Z,15.13
2018-03-16T02:29:18.540Z,13.30
2018-03-16T02:31:44.738Z,14.80
2018-03-16T02:34:11.195Z,13.98
2018-03-16T02:36:38.446Z,13.32
2018-03-16T02:39:06.029Z,14.13
2018-03-16T02:41:33.945Z,13.95
2018-03-16T02:44:00.954Z,14.32
2018-03-16T02:46:27.718Z,15.50
2018-03-16T02:48:55.722Z,16.70
2018-03-16T02:51:21.937Z,18.90
2018-03-16T02:53:48.192Z,18.15
2018-03-16T02:56:14.947Z,16.85
2018-03-16T02:58:41.625Z,16.45
2018-03-16T03:01:08.590Z,14.85
2018-03-16T03:03:34.790Z,13.48
2018-03-16T03:06:01.764Z,16.15
2018-03-16T03:08:27.976Z,14.57
2018-03-16T03:10:55.827Z,14.75
2018-03-16T03:13:22.798Z,16.12
2018-03-16T03:15:49.155Z,16.70
2018-03-16T03:18:16.239Z,17.75
2018-03-16T03:20:43.570Z,23.10
2018-03-16T03:23:10.558Z,20.05
2018-03-16T03:25:38.443Z,22.75
2018-03-16T03:28:05.003Z,20.60
2018-03-16T03:30:31.489Z,21.95
2018-03-16T03:32:58.445Z,19.83
2018-03-16T03:35:26.070Z,20.58
2018-03-16T03:37:53.160Z,19.87
2018-03-16T03:40:19.982Z,21.00
2018-03-16T03:42:47.556Z,20.75
2018-03-16T03:45:14.735Z,20.52
2018-03-16T03:47:42.531Z,23.50
2018-03-16T03:50:09.250Z,20.62
2018-03-16T03:52:35.458Z,19.77
2018-03-16T03:55:01.674Z,17.50
2018-03-16T03:57:28.402Z,23.48
2018-03-16T03:59:55.972Z,19.30
2018-03-16T04:02:22.762Z,22.42
2018-03-16T04:04:49.134Z,20.12
2018-03-16T04:07:16.179Z,21.20
2018-03-16T04:09:43.741Z,19.20
2018-03-16T04:12:10.668Z,22.13
2018-03-16T04:14:38.122Z,19.25
2018-03-16T04:17:05.408Z,21.92
2018-03-16T04:19:32.169Z,21.23
2018-03-16T04:21:58.923Z,17.83
2018-03-16T04:24:25.114Z,19.27
2018-03-16T04:26:51.625Z,19.90
2018-03-16T04:29:18.683Z,20.50
2018-03-16T04:31:45.804Z,20.45
2018-03-16T04:34:12.008Z,17.77
2018-03-16T04:36:38.229Z,19.98
2018-03-16T04:39:04.459Z,20.75
2018-03-16T04:41:31.877Z,22.52
2018-03-16T04:43:58.164Z,19.02
2018-03-16T04:46:25.138Z,21.45
2018-03-16T04:48:52.164Z,21.05
2018-03-16T04:51:18.355Z,19.33
2018-03-16T04:53:45.748Z,18.62
2018-03-16T04:56:12.019Z,20.48
2018-03-16T04:58:38.958Z,21.50
2018-03-16T05:01:06.039Z,17.30
2018-03-16T05:03:33.039Z,20.17
2018-03-16T05:05:59.998Z,22.65
2018-03-16T05:08:26.652Z,18.35
2018-03-16T05:10:52.996Z,18.20
2018-03-16T05:13:19.515Z,19.40
2018-03-16T05:15:46.533Z,18.20
2018-03-16T05:18:13.567Z,19.60
2018-03-16T05:20:41.711Z,18.95
2018-03-16T05:23:08.113Z,19.77
2018-03-16T05:25:34.291Z,20.60
2018-03-16T05:28:01.158Z,20.65
2018-03-16T05:30:27.376Z,19.80
2018-03-16T05:32:54.488Z,20.75
2018-03-16T05:35:21.815Z,21.05
2018-03-16T05:37:48.371Z,18.30
2018-03-16T05:40:15.351Z,22.52
2018-03-16T05:42:41.777Z,19.12
2018-03-16T05:45:08.103Z,19.77
2018-03-16T05:47:35.072Z,19.58
2018-03-16T05:50:02.129Z,18.80
2018-03-16T05:52:28.403Z,18.52
2018-03-16T05:54:55.550Z,18.40
2018-03-16T05:57:21.806Z,21.42
2018-03-16T05:59:48.161Z,18.75
2018-03-16T06:02:14.389Z,19.40
2018-03-16T06:04:41.856Z,20.10
2018-03-16T06:07:08.663Z,20.27
2018-03-16T06:09:34.922Z,20.75
2018-03-16T06:12:01.136Z,22.90
2018-03-16T06:14:28.187Z,20.83
2018-03-16T06:16:54.403Z,17.25
2018-03-16T06:19:21.378Z,20.55
2018-03-16T06:21:47.591Z,17.60
2018-03-16T06:24:13.822Z,18.95
2018-03-16T06:26:40.054Z,19.35
2018-03-16T06:29:07.270Z,18.20
2018-03-16T06:31:33.454Z,18.05
2018-03-16T06:33:59.665Z,22.17
2018-03-16T06:36:25.880Z,19.55
2018-03-16T06:38:52.793Z,17.30
2018-03-16T06:41:19.004Z,22.08
2018-03-16T06:43:45.205Z,21.98
2018-03-16T06:46:11.491Z,24.08
2018-03-16T06:48:38.832Z,22.83
2018-03-16T06:51:06.409Z,21.40
2018-03-16T06:53:33.439Z,22.73
2018-03-16T06:56:00.536Z,25.75
2018-03-16T06:58:28.531Z,20.73
2018-03-16T07:00:55.291Z,20.23
2018-03-16T07:03:21.738Z,21.52
2018-03-16T07:05:48.154Z,21.15
2018-03-16T07:08:14.810Z,20.73
2018-03-16T07:10:42.712Z,24.48
2018-03-16T07:13:09.263Z,21.70
2018-03-16T07:15:36.311Z,21.48
2018-03-16T07:18:03.303Z,20.27
2018-03-16T07:20:29.969Z,21.62
2018-03-16T07:22:57.299Z,22.50
2018-03-16T07:25:24.676Z,22.05
2018-03-16T07:27:51.391Z,23.67
2018-03-16T07:30:18.337Z,23.50
2018-03-16T07:32:45.617Z,21.90
2018-03-16T07:35:12.199Z,28.00
2018-03-16T07:37:38.462Z,23.38
2018-03-16T07:40:05.539Z,21.25
2018-03-16T07:42:33.066Z,21.85
2018-03-16T07:45:00.175Z,29.25
2018-03-16T07:47:26.580Z,31.05
2018-03-16T07:49:53.499Z,28.95
2018-03-16T07:52:19.737Z,30.27
2018-03-16T07:54:46.568Z,27.60
2018-03-16T07:57:13.395Z,28.90
2018-03-16T07:59:41.888Z,32.85
2018-03-16T08:02:08.806Z,28.27
2018-03-16T08:04:35.028Z,28.58
2018-03-16T08:07:01.241Z,31.60
2018-03-16T08:09:27.895Z,32.25
2018-03-16T08:11:54.955Z,28.42
2018-03-16T08:14:21.155Z,27.30
2018-03-16T08:16:47.525Z,30.48
2018-03-16T08:19:14.469Z,32.40
2018-03-16T08:21:41.709Z,33.25
2018-03-16T08:26:42.798Z,30.10
2018-03-16T08:29:09.027Z,36.28
2018-03-16T08:31:35.223Z,35.90
2018-03-16T08:34:03.340Z,33.85
2018-03-16T08:36:30.763Z,33.80
2018-03-16T08:38:58.121Z,31.65
2018-03-16T08:41:24.421Z,35.45
2018-03-16T08:43:50.670Z,35.20
2018-03-16T08:46:18.286Z,36.20
2018-03-16T08:48:45.048Z,34.05
2018-03-16T08:51:11.521Z,32.08
2018-03-16T08:53:37.671Z,33.35
2018-03-16T08:56:03.906Z,32.55
2018-03-16T08:58:30.112Z,33.13
2018-03-16T09:00:57.007Z,33.50
2018-03-16T09:03:23.775Z,33.72
2018-03-16T09:05:50.839Z,35.80
2018-03-16T09:08:17.092Z,34.00
2018-03-16T09:10:43.908Z,34.72
2018-03-16T09:13:10.752Z,33.55
2018-03-16T09:15:37.631Z,34.40
2018-03-16T09:18:04.074Z,34.85
2018-03-16T09:20:30.324Z,32.70
2018-03-16T09:22:56.527Z,35.10
2018-03-16T09:25:23.963Z,33.38
2018-03-16T09:27:51.522Z,32.63
2018-03-16T09:30:18.231Z,35.78
2018-03-16T09:32:44.453Z,33.92
2018-03-16T09:35:10.671Z,34.63
2018-03-16T09:37:38.489Z,33.10
2018-03-16T09:40:05.090Z,31.17
2018-03-16T09:42:31.592Z,34.40
2018-03-16T09:44:57.918Z,34.53
2018-03-16T09:47:25.804Z,34.83
2018-03-16T09:49:53.986Z,34.60
2018-03-16T09:52:20.224Z,34.33
2018-03-16T09:54:58.796Z,31.65
2018-03-16T09:57:26.085Z,32.70
2018-03-16T09:59:52.734Z,31.73
2018-03-16T10:02:20.836Z,32.67
2018-03-16T10:04:47.780Z,32.15
2018-03-16T10:07:14.766Z,31.00
2018-03-16T10:09:41.636Z,30.73
2018-03-16T10:12:09.919Z,30.77
2018-03-16T10:14:36.949Z,30.12
2018-03-16T10:17:03.922Z,30.27
2018-03-16T10:19:31.259Z,29.95
2018-03-16T10:21:57.904Z,29.20
2018-03-16T10:24:24.258Z,29.75
2018-03-16T10:26:50.581Z,29.90
2018-03-16T10:29:17.576Z,29.33
2018-03-16T10:31:45.875Z,28.70
2018-03-16T10:34:14.078Z,28.35
2018-03-16T10:36:41.033Z,28.80
2018-03-16T10:39:08.269Z,27.90
2018-03-16T10:41:35.192Z,28.17
2018-03-16T10:44:02.736Z,27.27
2018-03-16T10:46:29.381Z,26.12
2018-03-16T10:48:56.156Z,24.43
2018-03-16T10:51:24.483Z,27.47
2018-03-16T10:53:51.209Z,26.90
2018-03-16T10:56:17.513Z,25.70
2018-03-16T10:58:44.550Z,25.80
2018-03-16T11:01:17.610Z,25.62
2018-03-16T11:03:49.746Z,25.57
2018-03-16T11:06:24.423Z,24.50
2018-03-16T11:08:52.838Z,22.70
2018-03-16T11:11:20.787Z,19.90
2018-03-16T11:13:47.660Z,18.40
2018-03-16T11:16:15.584Z,19.57
2018-03-16T11:18:42.058Z,18.80
2018-03-16T11:21:09.496Z,17.57
2018-03-16T11:23:36.704Z,19.27
2018-03-16T11:26:03.803Z,18.90
2018-03-16T11:28:32.798Z,17.27
2018-03-16T11:30:59.592Z,17.77
2018-03-16T11:33:28.336Z,18.10
2018-03-16T11:35:56.512Z,19.02
2018-03-16T11:38:23.761Z,19.90
2018-03-16T11:40:51.157Z,18.62
2018-03-16T11:43:17.388Z,16.85
2018-03-16T11:45:44.165Z,17.25
2018-03-16T11:48:10.619Z,17.27
2018-03-16T11:50:38.118Z,18.27
2018-03-16T11:53:04.682Z,17.60
2018-03-16T11:55:32.065Z,18.65
2018-03-16T11:58:00.100Z,17.20
2018-03-16T12:00:27.578Z,16.65
2018-03-16T12:02:55.187Z,16.62
2018-03-16T12:05:22.249Z,17.30
2018-03-16T12:07:49.505Z,16.60
2018-03-16T12:10:16.509Z,17.95
2018-03-16T12:12:44.518Z,18.17
2018-03-16T12:15:11.421Z,16.35
2018-03-16T12:17:40.553Z,17.58
2018-03-16T12:20:08.575Z,18.95
2018-03-16T12:22:35.707Z,18.60
2018-03-16T12:25:02.721Z,16.85
2018-03-16T12:27:30.153Z,17.97
2018-03-16T12:29:57.115Z,17.58
2018-03-16T12:32:23.456Z,17.48
2018-03-16T12:34:51.591Z,16.30
2018-03-16T12:37:17.837Z,17.42
2018-03-16T12:39:44.923Z,17.10
2018-03-16T12:42:11.195Z,18.80
2018-03-16T12:44:38.249Z,16.08
2018-03-16T12:47:05.297Z,17.87
2018-03-16T12:49:31.583Z,17.65
2018-03-16T12:51:57.815Z,18.50
2018-03-16T12:54:24.671Z,19.65
2018-03-16T12:56:50.883Z,16.75
2018-03-16T12:59:18.779Z,17.15
2018-03-16T13:01:46.421Z,17.12
2018-03-16T13:04:13.166Z,17.77
2018-03-16T13:06:39.754Z,16.05
2018-03-16T13:09:06.030Z,16.90
2018-03-16T13:11:32.502Z,17.05
2018-03-16T13:13:59.563Z,17.98
2018-03-16T13:16:26.326Z,17.40
2018-03-16T13:18:53.518Z,18.55
2018-03-16T13:21:20.692Z,17.50
2018-03-16T13:23:47.187Z,15.45
2018-03-16T13:26:15.062Z,13.62
2018-03-16T13:28:43.313Z,14.15
2018-03-16T13:31:10.533Z,15.90
2018-03-16T13:33:37.578Z,16.10
2018-03-16T13:36:04.291Z,16.15
2018-03-16T13:38:30.933Z,15.05
2018-03-16T13:40:58.827Z,15.82
2018-03-16T13:43:25.620Z,16.48
2018-03-16T13:45:52.656Z,19.15
2018-03-16T13:48:19.586Z,17.95
2018-03-16T13:50:47.520Z,17.58
2018-03-16T13:53:15.237Z,18.77
2018-03-16T13:55:42.705Z,16.23
2018-03-16T13:58:10.247Z,18.77
2018-03-16T14:00:37.041Z,20.37
2018-03-16T14:03:03.243Z,20.48
2018-03-16T14:05:29.457Z,18.30
2018-03-16T14:07:56.428Z,17.98
2018-03-16T14:10:22.787Z,15.23
2018-03-16T14:12:49.339Z,15.80
2018-03-16T14:15:16.477Z,15.93
2018-03-16T14:17:42.777Z,16.45
2018-03-16T14:20:08.998Z,16.27
2018-03-16T14:22:35.258Z,20.15
2018-03-16T14:25:01.497Z,19.87
2018-03-16T14:27:28.779Z,23.45
2018-03-16T14:29:56.210Z,21.25
2018-03-16T14:32:23.207Z,18.73
2018-03-16T14:34:50.436Z,18.85
2018-03-16T14:37:18.649Z,19.62
2018-03-16T14:39:44.936Z,19.17
2018-03-16T14:42:11.891Z,20.35
2018-03-16T14:44:38.891Z,17.23
2018-03-16T14:47:05.162Z,19.12
2018-03-16T14:49:32.454Z,19.35
2018-03-16T14:52:00.582Z,17.12
2018-03-16T14:54:27.577Z,16.48
2018-03-16T14:56:54.206Z,16.23
2018-03-16T14:59:21.238Z,16.23
2018-03-16T15:01:47.509Z,16.90
2018-03-16T15:04:14.087Z,16.08
2018-03-16T15:06:41.003Z,16.27
2018-03-16T15:09:07.427Z,15.68
2018-03-16T15:11:34.083Z,14.30
2018-03-16T15:14:01.422Z,14.75
2018-03-16T15:16:29.400Z,14.25
2018-03-16T15:18:55.616Z,13.55
2018-03-16T15:21:22.054Z,11.90
2018-03-16T15:23:48.710Z,13.05
2018-03-16T15:26:15.700Z,12.68
2018-03-16T15:28:41.988Z,11.38
2018-03-16T15:31:08.945Z,13.38
2018-03-16T15:33:35.903Z,12.60
2018-03-16T15:36:02.125Z,14.50
2018-03-16T15:38:28.336Z,15.55
2018-03-16T15:40:55.271Z,11.25
2018-03-16T15:43:22.322Z,7.25
2018-03-16T15:45:49.607Z,6.35
2018-03-16T15:48:16.012Z,5.40
2018-03-16T15:50:43.096Z,5.72
2018-03-16T15:53:10.175Z,5.07
2018-03-16T15:55:37.500Z,5.68
2018-03-16T15:58:04.285Z,6.60
2018-03-16T16:00:31.303Z,3.83
2018-03-16T16:02:58.149Z,5.00
2018-03-16T16:05:24.816Z,5.10
2018-03-16T16:07:51.844Z,6.20
2018-03-16T16:10:18.735Z,4.43
2018-03-16T16:12:45.216Z,4.00
2018-03-16T16:15:12.055Z,4.20
2018-03-16T16:17:40.057Z,3.80
2018-03-16T16:20:07.549Z,2.58
2018-03-16T16:22:34.145Z,2.90
2018-03-16T16:25:01.124Z,2.95
2018-03-16T16:27:27.339Z,4.10
2018-03-16T16:29:54.294Z,3.12
2018-03-16T16:32:20.813Z,5.50
2018-03-16T16:34:47.872Z,4.65
2018-03-16T16:37:14.100Z,3.20
2018-03-16T16:39:40.336Z,4.10
2018-03-16T16:42:06.826Z,4.05
2018-03-16T16:44:34.040Z,4.62
2018-03-16T16:47:00.797Z,5.90
2018-03-16T16:49:28.408Z,5.22
2018-03-16T16:51:55.586Z,6.57
2018-03-16T16:54:22.630Z,4.78
2018-03-16T16:56:48.967Z,3.85
2018-03-16T16:59:15.629Z,4.90
2018-03-16T17:01:42.469Z,4.30
2018-03-16T17:04:09.960Z,4.35
2018-03-16T17:06:36.961Z,4.53
2018-03-16T17:09:03.250Z,3.97
2018-03-16T17:11:29.919Z,5.80
2018-03-16T17:13:56.780Z,3.50
2018-03-16T17:16:23.067Z,2.55
2018-03-16T17:18:50.042Z,2.40
2018-03-16T17:21:16.305Z,2.80
2018-03-16T17:23:42.886Z,3.10
2018-03-16T17:26:09.616Z,2.90
2018-03-16T17:28:36.889Z,2.75
2018-03-16T17:31:03.674Z,3.72
2018-03-16T17:33:30.986Z,4.25
2018-03-16T17:35:58.586Z,3.67
2018-03-16T17:38:24.789Z,3.87
2018-03-16T17:40:51.048Z,3.90
2018-03-16T17:43:17.258Z,8.70
2018-03-16T17:45:43.482Z,14.45
2018-03-16T17:48:10.245Z,12.18
2018-03-16T17:50:37.762Z,13.73
2018-03-16T17:53:04.078Z,12.05
2018-03-16T17:55:31.034Z,11.70
2018-03-16T17:57:57.263Z,11.40
2018-03-16T18:00:24.782Z,13.95
2018-03-16T18:02:51.102Z,21.15
2018-03-16T18:05:18.624Z,18.58
2018-03-16T18:07:45.272Z,13.98
2018-03-16T18:10:11.631Z,13.32
2018-03-16T18:12:39.300Z,9.00
2018-03-16T18:15:06.780Z,9.98
2018-03-16T18:17:34.504Z,11.90
2018-03-16T18:20:01.083Z,11.60
2018-03-16T18:22:27.453Z,9.90
2018-03-16T18:24:54.195Z,9.38
2018-03-16T18:27:21.595Z,22.20
2018-03-16T18:29:49.421Z,17.08
2018-03-16T18:32:16.500Z,14.95
2018-03-16T18:34:44.122Z,16.12
2018-03-16T18:37:10.843Z,15.68
2018-03-16T18:39:37.758Z,14.70
2018-03-16T18:42:05.092Z,11.93
2018-03-16T18:44:31.988Z,10.73
2018-03-16T18:46:58.938Z,10.45
2018-03-16T18:49:25.919Z,8.18
2018-03-16T18:51:52.937Z,8.38
2018-03-16T18:54:19.287Z,7.45
2018-03-16T18:56:45.585Z,5.80
2018-03-16T18:59:12.094Z,5.00
2018-03-16T19:01:39.212Z,5.78
2018-03-16T19:04:07.245Z,6.90
2018-03-16T19:06:34.363Z,5.53
2018-03-16T19:09:01.189Z,5.93
2018-03-16T19:11:27.692Z,6.68
2018-03-16T19:13:54.688Z,7.93
2018-03-16T19:16:20.939Z,7.65
2018-03-16T19:18:47.553Z,11.50
2018-03-16T19:21:13.758Z,12.27
2018-03-16T19:33:26.160Z,8.02
2018-03-16T19:35:52.715Z,7.30
2018-03-16T19:38:19.130Z,7.40
2018-03-16T19:40:45.662Z,7.90
2018-03-16T19:43:12.824Z,7.07
2018-03-16T19:45:39.473Z,7.07
2018-03-16T19:48:06.276Z,6.32
2018-03-16T19:50:33.037Z,7.05
2018-03-16T19:53:00.474Z,6.15
2018-03-16T19:55:27.594Z,5.50
2018-03-16T19:57:54.866Z,6.78
2018-03-16T20:00:22.153Z,5.70
2018-03-16T20:02:48.432Z,6.72
2018-03-16T20:05:15.444Z,8.55
2018-03-16T20:07:42.495Z,8.20
2018-03-16T20:10:10.062Z,7.90
2018-03-16T20:12:37.782Z,9.07
2018-03-16T20:15:04.110Z,10.48
2018-03-16T20:17:30.662Z,11.88
2018-03-16T20:19:57.333Z,12.40
2018-03-16T20:22:24.203Z,10.50
2018-03-16T20:24:50.661Z,7.00
2018-03-16T20:27:18.845Z,7.53
2018-03-16T20:29:45.150Z,8.05
2018-03-16T20:32:12.168Z,7.45
2018-03-16T20:34:38.652Z,7.97
2018-03-16T20:37:06.738Z,8.57
2018-03-16T20:39:32.988Z,6.87
2018-03-16T20:42:00.431Z,4.90
2018-03-16T20:44:28.073Z,4.60
2018-03-16T20:46:55.180Z,5.28
2018-03-16T20:49:22.427Z,5.75
2018-03-16T20:51:48.711Z,5.20
2018-03-16T20:54:15.472Z,5.93
2018-03-16T20:56:42.481Z,6.65
2018-03-16T20:59:08.781Z,6.90
2018-03-16T21:01:35.167Z,8.73
2018-03-16T21:04:01.925Z,8.13
2018-03-16T21:06:29.188Z,7.80
2018-03-16T21:08:56.415Z,6.90
2018-03-16T21:11:23.644Z,8.13
2018-03-16T21:13:50.001Z,14.23
2018-03-16T21:16:16.499Z,11.63
2018-03-16T21:18:42.795Z,11.10
2018-03-16T21:21:09.187Z,10.10
2018-03-16T21:23:35.424Z,9.70
2018-03-16T21:26:01.813Z,8.65
2018-03-16T21:28:28.036Z,8.40
2018-03-16T21:30:54.818Z,10.00
2018-03-16T21:33:21.099Z,10.82
2018-03-16T21:35:47.506Z,10.23
2018-03-16T21:38:14.637Z,10.75
2018-03-16T21:40:43.105Z,8.75
2018-03-16T21:43:09.653Z,9.50
2018-03-16T21:45:37.617Z,10.15
2018-03-16T21:48:04.832Z,10.60
2018-03-16T21:50:31.489Z,16.73
2018-03-16T21:52:58.888Z,16.05
2018-03-16T21:55:26.803Z,13.48
2018-03-16T21:57:54.118Z,11.93
2018-03-16T22:00:21.175Z,15.05
2018-03-16T22:02:49.231Z,11.27
2018-03-16T22:05:15.592Z,10.48
2018-03-16T22:07:41.879Z,8.15
2018-03-16T22:10:08.908Z,8.30
2018-03-16T22:12:35.705Z,9.95
2018-03-16T22:15:02.548Z,9.15
2018-03-16T22:17:29.588Z,9.70
2018-03-16T22:19:55.795Z,8.45
2018-03-16T22:22:22.388Z,11.30
2018-03-16T22:24:48.614Z,9.88
2018-03-16T22:27:15.502Z,8.48
2018-03-16T22:29:42.297Z,9.35
2018-03-16T22:32:08.915Z,8.98
2018-03-16T22:34:36.209Z,8.00
2018-03-16T22:37:03.854Z,9.07
2018-03-16T22:39:30.800Z,9.57
2018-03-16T22:41:57.092Z,8.05
2018-03-16T22:44:23.511Z,7.87
2018-03-16T22:46:49.768Z,7.40
2018-03-16T22:49:16.461Z,8.18
2018-03-16T22:51:44.096Z,6.95
2018-03-16T22:54:11.746Z,6.97
2018-03-16T22:56:38.655Z,7.93
2018-03-16T22:59:05.773Z,8.30
2018-03-16T23:01:32.329Z,7.07
2018-03-16T23:03:58.866Z,7.50
2018-03-16T23:06:25.930Z,7.65
2018-03-16T23:08:52.209Z,7.10
2018-03-16T23:11:19.567Z,6.25
2018-03-16T23:13:46.510Z,6.45
2018-03-16T23:16:13.557Z,6.40
2018-03-16T23:18:40.564Z,6.22
2018-03-16T23:21:07.303Z,6.80
2018-03-16T23:23:33.571Z,6.28
2018-03-16T23:26:00.600Z,5.90
2018-03-16T23:28:26.977Z,4.35
2018-03-16T23:30:53.272Z,6.37
2018-03-16T23:33:20.846Z,4.82
2018-03-16T23:35:47.950Z,6.85
2018-03-16T23:38:14.353Z,5.30
2018-03-16T23:40:41.245Z,5.55
2018-03-16T23:43:08.213Z,5.55
2018-03-16T23:45:35.376Z,5.90
2018-03-16T23:48:01.683Z,6.40
2018-03-16T23:50:28.655Z,5.28
2018-03-16T23:52:55.034Z,5.50
2018-03-16T23:55:21.273Z,5.70
2018-03-16T23:57:48.519Z,5.68
